createdAt,value
2022-10-03T00:00:21.063Z,84.56
2022-10-03T00:03:36.255Z,84.57
2022-10-03T00:06:44.365Z,84.57
2022-10-03T00:09:27.258Z,84.59
2022-10-03T00:12:13.378Z,84.42
2022-10-03T00:15:05.977Z,84.47
2022-10-03T00:17:53.670Z,84.55
2022-10-03T00:20:50.098Z,84.62
2022-10-03T00:23:40.217Z,84.73
2022-10-03T00:26:38.045Z,84.72
2022-10-03T00:29:42.542Z,84.60
2022-10-03T00:32:22.716Z,84.63
2022-10-03T00:35:14.487Z,84.59
2022-10-03T00:38:13.796Z,84.74
2022-10-03T00:41:12.497Z,84.69
2022-10-03T00:43:59.251Z,84.83
2022-10-03T00:46:56.719Z,84.91
2022-10-03T00:49:51.613Z,84.95
2022-10-03T00:52:52.319Z,84.96
2022-10-03T00:55:35.340Z,84.94
2022-10-03T00:58:30.932Z,84.92
2022-10-03T01:01:35.582Z,84.97
2022-10-03T01:04:26.916Z,84.94
2022-10-03T01:07:14.884Z,84.96
2022-10-03T01:10:14.355Z,84.90
2022-10-03T01:12:57.528Z,84.90
2022-10-03T01:15:31.116Z,85.05
2022-10-03T01:18:11.713Z,85.10
2022-10-03T01:21:08.422Z,85.00
2022-10-03T01:23:45.061Z,84.91
2022-10-03T01:26:15.698Z,85.01
2022-10-03T01:29:31.508Z,84.95
2022-10-03T01:32:22.609Z,85.01
2022-10-03T01:34:57.055Z,85.11
2022-10-03T01:37:40.238Z,85.03
2022-10-03T01:40:31.946Z,85.13
2022-10-03T01:43:19.778Z,85.30
2022-10-03T01:46:06.569Z,85.44
2022-10-03T01:48:49.978Z,85.46
2022-10-03T01:51:32.155Z,85.45
2022-10-03T01:54:07.504Z,85.84
2022-10-03T01:57:00.726Z,85.78
2022-10-03T01:59:53.593Z,85.53
2022-10-03T02:02:54.790Z,85.38
2022-10-03T02:05:43.791Z,85.29
2022-10-03T02:08:19.384Z,85.18
2022-10-03T02:11:10.579Z,85.10
2022-10-03T02:13:48.405Z,85.08
2022-10-03T02:16:42.026Z,85.08
2022-10-03T02:19:15.620Z,85.15
2022-10-03T02:21:51.269Z,85.33
2022-10-03T02:24:43.972Z,85.28
2022-10-03T02:27:51.209Z,85.26
2022-10-03T02:30:40.273Z,85.41
2022-10-03T02:33:40.313Z,85.44
2022-10-03T02:36:08.407Z,85.48
2022-10-03T02:39:09.770Z,85.47
2022-10-03T02:42:26.123Z,85.47
2022-10-03T02:45:22.556Z,85.45
2022-10-03T02:48:31.634Z,85.43
2022-10-03T02:51:23.601Z,85.52
2022-10-03T02:54:27.285Z,85.47
2022-10-03T02:57:11.343Z,85.37
2022-10-03T02:59:41.309Z,85.38
2022-10-03T03:02:27.893Z,85.29
2022-10-03T03:05:19.162Z,85.26
2022-10-03T03:08:06.135Z,85.23
2022-10-03T03:10:58.390Z,85.22
2022-10-03T03:14:05.058Z,85.17
2022-10-03T03:16:42.002Z,85.21
2022-10-03T03:19:34.685Z,85.24
2022-10-03T03:22:27.694Z,85.25
2022-10-03T03:25:01.543Z,85.22
2022-10-03T03:27:49.238Z,85.23
2022-10-03T03:30:22.382Z,85.30
2022-10-03T03:33:09.891Z,85.28
2022-10-03T03:35:59.978Z,85.28
2022-10-03T03:38:58.869Z,85.26
2022-10-03T03:41:47.083Z,85.16
2022-10-03T03:44:37.331Z,85.15
2022-10-03T03:47:16.532Z,85.18
2022-10-03T03:50:26.081Z,85.20
2022-10-03T03:53:04.740Z,85.21
2022-10-03T03:55:39.255Z,85.23
2022-10-03T03:58:33.639Z,85.27
2022-10-03T04:01:24.451Z,85.30
2022-10-03T04:04:32.459Z,85.40
2022-10-03T04:07:21.808Z,85.34
2022-10-03T04:09:54.783Z,85.33
2022-10-03T04:12:43.016Z,85.38
2022-10-03T04:15:39.981Z,85.40
2022-10-03T04:18:59.192Z,85.34
2022-10-03T04:21:55.809Z,85.39
2022-10-03T04:24:40.841Z,85.43
2022-10-03T04:27:39.790Z,85.42
2022-10-03T04:30:33.511Z,85.48
2022-10-03T04:33:17.186Z,85.45
2022-10-03T04:35:45.100Z,85.40
2022-10-03T04:38:27.373Z,85.45
2022-10-03T04:41:14.511Z,85.49
2022-10-03T04:43:52.605Z,85.65
2022-10-03T04:46:33.003Z,85.56
2022-10-03T04:49:35.790Z,85.55
2022-10-03T04:52:50.310Z,85.72
2022-10-03T04:55:51.764Z,85.78
2022-10-03T04:58:26.961Z,85.87
2022-10-03T05:01:22.785Z,85.85
2022-10-03T05:04:27.068Z,85.98
2022-10-03T05:07:22.616Z,86.10
2022-10-03T05:10:17.493Z,86.23
2022-10-03T05:13:18.659Z,86.26
2022-10-03T05:16:09.324Z,86.45
2022-10-03T05:19:04.572Z,86.60
2022-10-03T05:22:12.116Z,86.62
2022-10-03T05:25:10.666Z,86.70
2022-10-03T05:27:55.765Z,86.74
2022-10-03T05:30:42.085Z,86.78
2022-10-03T05:33:46.205Z,86.88
2022-10-03T05:36:35.653Z,87.00
2022-10-03T05:39:42.414Z,87.09
2022-10-03T05:42:29.645Z,87.21
2022-10-03T05:45:33.141Z,87.38
2022-10-03T05:48:22.847Z,87.37
2022-10-03T05:51:34.227Z,87.26
2022-10-03T05:54:23.855Z,87.50
2022-10-03T05:57:24.565Z,87.32
2022-10-03T06:00:19.948Z,87.18
2022-10-03T06:03:03.024Z,87.24
2022-10-03T06:06:08.996Z,87.32
2022-10-03T06:08:41.584Z,87.39
2022-10-03T06:11:27.574Z,87.49
2022-10-03T06:14:20.572Z,87.48
2022-10-03T06:17:10.141Z,87.50
2022-10-03T06:19:45.582Z,87.51
2022-10-03T06:22:32.750Z,87.62
2022-10-03T06:25:11.163Z,87.56
2022-10-03T06:27:57.697Z,87.52
2022-10-03T06:31:06.883Z,87.56
2022-10-03T06:34:03.117Z,87.42
2022-10-03T06:37:03.631Z,87.42
2022-10-03T06:39:59.624Z,87.25
2022-10-03T06:42:52.738Z,87.20
2022-10-03T06:45:25.618Z,87.12
2022-10-03T06:48:17.815Z,87.16
2022-10-03T06:51:19.751Z,87.28
2022-10-03T06:53:54.250Z,87.29
2022-10-03T06:57:03.588Z,87.30
2022-10-03T06:59:53.588Z,87.26
2022-10-03T07:02:40.170Z,87.33
2022-10-03T07:05:43.137Z,87.31
2022-10-03T07:08:53.639Z,87.40
2022-10-03T07:11:49.661Z,87.26
2022-10-03T07:14:38.281Z,87.33
2022-10-03T07:17:50.587Z,87.41
2022-10-03T07:20:46.306Z,87.45
2022-10-03T07:23:55.413Z,87.51
2022-10-03T07:26:48.730Z,87.64
2022-10-03T07:29:28.513Z,87.77
2022-10-03T07:32:39.263Z,87.70
2022-10-03T07:35:25.676Z,87.76
2022-10-03T07:38:48.451Z,87.78
2022-10-03T07:41:25.187Z,87.77
2022-10-03T07:44:19.743Z,87.66
2022-10-03T07:46:53.540Z,87.62
2022-10-03T07:49:27.655Z,87.67
2022-10-03T07:52:39.798Z,87.59
2022-10-03T07:55:38.861Z,87.39
2022-10-03T07:58:44.619Z,87.40
2022-10-03T08:01:27.638Z,87.43
2022-10-03T08:03:58.390Z,87.30
2022-10-03T08:07:01.896Z,87.11
2022-10-03T08:10:09.472Z,86.95
2022-10-03T08:13:16.355Z,86.94
2022-10-03T08:15:49.744Z,86.89
2022-10-03T08:18:34.364Z,86.86
2022-10-03T08:21:06.266Z,86.58
2022-10-03T08:23:59.438Z,86.54
2022-10-03T08:26:47.697Z,86.56
2022-10-03T08:30:00.337Z,86.57
2022-10-03T08:33:00.855Z,86.20
2022-10-03T08:35:50.242Z,86.30
2022-10-03T08:38:38.462Z,86.30
2022-10-03T08:41:57.323Z,86.29
2022-10-03T08:44:37.666Z,86.24
2022-10-03T08:47:05.598Z,86.25
2022-10-03T08:50:05.667Z,86.13
2022-10-03T08:53:14.463Z,85.62
2022-10-03T08:56:09.724Z,85.38
2022-10-03T08:59:14.708Z,85.10
2022-10-03T09:01:56.551Z,84.45
2022-10-03T09:04:54.718Z,83.36
2022-10-03T09:07:40.541Z,83.39
2022-10-03T09:10:33.013Z,83.63
2022-10-03T09:13:53.013Z,83.34
2022-10-03T09:16:55.527Z,83.36
2022-10-03T09:19:56.927Z,83.16
2022-10-03T09:22:50.230Z,82.90
2022-10-03T09:25:36.135Z,82.69
2022-10-03T09:28:39.218Z,82.30
2022-10-03T09:31:48.255Z,82.53
2022-10-03T09:34:37.566Z,82.70
2022-10-03T09:37:13.166Z,82.76
2022-10-03T09:40:05.776Z,82.59
2022-10-03T09:43:08.238Z,82.46
2022-10-03T09:46:02.136Z,82.36
2022-10-03T09:48:49.149Z,82.41
2022-10-03T09:51:56.029Z,82.50
2022-10-03T09:54:50.600Z,82.38
2022-10-03T09:57:29.932Z,82.32
2022-10-03T10:00:08.827Z,82.35
2022-10-03T10:03:08.391Z,82.13
2022-10-03T10:06:08.455Z,81.88
2022-10-03T10:08:55.135Z,81.75
2022-10-03T10:12:02.424Z,81.73
2022-10-03T10:14:45.177Z,81.84
2022-10-03T10:17:49.259Z,82.22
2022-10-03T10:20:55.676Z,82.61
2022-10-03T10:23:29.718Z,82.76
2022-10-03T10:26:30.599Z,82.92
2022-10-03T10:29:31.323Z,83.11
2022-10-03T10:32:19.124Z,83.11
2022-10-03T10:35:21.384Z,83.26
2022-10-03T10:38:17.042Z,83.14
2022-10-03T10:40:59.801Z,83.22
2022-10-03T10:43:41.526Z,83.36
2022-10-03T10:46:18.187Z,83.33
2022-10-03T10:49:30.795Z,83.18
2022-10-03T10:52:17.252Z,83.29
2022-10-03T10:55:27.330Z,83.41
2022-10-03T10:58:33.069Z,83.52
2022-10-03T11:01:45.146Z,83.56
2022-10-03T11:04:50.872Z,83.40
2022-10-03T11:07:20.322Z,83.59
2022-10-03T11:10:27.144Z,83.66
2022-10-03T11:13:35.740Z,83.82
2022-10-03T11:16:35.827Z,84.01
2022-10-03T11:19:27.320Z,84.38
2022-10-03T11:22:19.291Z,84.63
2022-10-03T11:25:09.295Z,84.58
2022-10-03T11:28:02.643Z,84.75
2022-10-03T11:31:01.219Z,84.73
2022-10-03T11:34:00.043Z,84.63
2022-10-03T11:36:33.914Z,84.56
2022-10-03T11:39:05.943Z,84.39
2022-10-03T11:42:03.652Z,84.44
2022-10-03T11:45:00.079Z,84.20
2022-10-03T11:47:55.446Z,83.88
2022-10-03T11:50:42.326Z,83.84
2022-10-03T11:53:20.278Z,83.79
2022-10-03T11:55:54.192Z,83.85
2022-10-03T11:58:38.349Z,84.04
2022-10-03T12:01:26.828Z,84.11
2022-10-03T12:04:14.231Z,84.36
2022-10-03T12:07:24.964Z,84.23
2022-10-03T12:10:03.691Z,83.87
2022-10-03T12:12:50.269Z,83.60
2022-10-03T12:15:36.992Z,83.25
2022-10-03T12:18:18.413Z,82.50
2022-10-03T12:21:04.279Z,81.96
2022-10-03T12:24:02.340Z,82.03
2022-10-03T12:26:56.313Z,82.13
2022-10-03T12:29:27.121Z,82.24
2022-10-03T12:32:20.442Z,81.98
2022-10-03T12:35:00.406Z,81.24
2022-10-03T12:37:34.669Z,81.19
2022-10-03T12:40:14.332Z,80.75
2022-10-03T12:43:00.557Z,80.35
2022-10-03T12:45:59.090Z,80.22
2022-10-03T12:49:07.659Z,80.33
2022-10-03T12:52:02.384Z,80.52
2022-10-03T12:55:20.803Z,80.62
2022-10-03T12:58:18.852Z,80.57
2022-10-03T13:01:23.690Z,80.54
2022-10-03T13:04:34.367Z,80.67
2022-10-03T13:07:19.931Z,80.75
2022-10-03T13:10:04.832Z,80.85
2022-10-03T13:12:41.233Z,80.89
2022-10-03T13:15:45.522Z,80.74
2022-10-03T13:18:45.337Z,80.80
2022-10-03T13:21:43.948Z,80.82
2022-10-03T13:24:22.776Z,81.13
2022-10-03T13:27:21.983Z,81.49
2022-10-03T13:29:58.700Z,81.58
2022-10-03T13:32:44.850Z,81.72
2022-10-03T13:35:50.133Z,81.87
2022-10-03T13:38:47.438Z,82.04
2022-10-03T13:41:33.698Z,82.15
2022-10-03T13:44:29.011Z,82.26
2022-10-03T13:47:27.551Z,82.25
2022-10-03T13:50:06.337Z,82.22
2022-10-03T13:52:45.182Z,81.93
2022-10-03T13:55:18.902Z,81.61
2022-10-03T13:57:56.167Z,81.41
2022-10-03T14:00:44.862Z,81.28
2022-10-03T14:03:45.723Z,81.26
2022-10-03T14:06:39.605Z,81.10
2022-10-03T14:09:29.355Z,81.29
2022-10-03T14:12:09.202Z,81.28
2022-10-03T14:15:15.949Z,81.34
2022-10-03T14:18:11.329Z,81.41
2022-10-03T14:21:18.091Z,81.45
2022-10-03T14:23:55.616Z,81.42
2022-10-03T14:26:56.526Z,81.50
2022-10-03T14:29:35.646Z,81.69
2022-10-03T14:32:46.891Z,81.50
2022-10-03T14:35:38.030Z,81.39
2022-10-03T14:38:56.534Z,81.29
2022-10-03T14:41:44.410Z,81.18
2022-10-03T14:44:38.839Z,80.99
2022-10-03T14:47:16.432Z,80.47
2022-10-03T14:50:00.285Z,80.79
2022-10-03T14:52:41.275Z,80.60
2022-10-03T14:55:45.376Z,80.50
2022-10-03T14:58:36.238Z,80.41
2022-10-03T15:01:07.986Z,79.84
2022-10-03T15:03:40.726Z,79.78
2022-10-03T15:06:33.158Z,79.68
2022-10-03T15:09:18.593Z,79.46
2022-10-03T15:12:14.304Z,79.58
2022-10-03T15:14:55.203Z,79.66
2022-10-03T15:17:28.585Z,79.64
2022-10-03T15:20:00.727Z,79.90
2022-10-03T15:22:43.489Z,80.23
2022-10-03T15:25:34.975Z,80.78
2022-10-03T15:28:22.622Z,80.60
2022-10-03T15:30:54.486Z,80.79
2022-10-03T15:33:33.794Z,81.07
2022-10-03T15:36:27.355Z,81.42
2022-10-03T15:39:00.654Z,81.54
2022-10-03T15:41:38.338Z,81.68
2022-10-03T15:44:33.680Z,81.82
2022-10-03T15:47:22.141Z,82.20
2022-10-03T15:50:13.638Z,82.12
2022-10-03T15:53:17.850Z,82.15
2022-10-03T15:56:10.430Z,82.20
2022-10-03T15:58:49.338Z,82.31
2022-10-03T16:01:29.301Z,82.16
2022-10-03T16:04:05.677Z,82.06
2022-10-03T16:07:03.387Z,81.91
2022-10-03T16:09:51.012Z,81.76
2022-10-03T16:12:20.470Z,81.67
2022-10-03T16:14:57.756Z,81.55
2022-10-03T16:17:52.977Z,81.60
2022-10-03T16:20:42.143Z,81.70
2022-10-03T16:23:19.789Z,81.77
2022-10-03T16:25:57.560Z,81.78
2022-10-03T16:28:39.535Z,81.88
2022-10-03T16:31:19.508Z,82.04
2022-10-03T16:34:01.182Z,82.05
2022-10-03T16:36:41.877Z,82.11
2022-10-03T16:39:38.612Z,82.18
2022-10-03T16:42:18.874Z,82.23
2022-10-03T16:44:46.913Z,82.25
2022-10-03T16:47:28.882Z,82.20
2022-10-03T16:50:19.411Z,82.14
2022-10-03T16:52:53.223Z,82.19
2022-10-03T16:55:29.525Z,82.23
2022-10-03T16:58:05.786Z,82.15
2022-10-03T17:00:44.445Z,82.13
2022-10-03T17:03:32.654Z,82.04
2022-10-03T17:06:04.765Z,82.04
2022-10-03T17:08:42.548Z,82.07
2022-10-03T17:11:21.600Z,82.04
2022-10-03T17:13:55.503Z,82.07
2022-10-03T17:16:47.859Z,82.09
2022-10-03T17:19:38.120Z,82.14
2022-10-03T17:22:16.059Z,82.14
2022-10-03T17:25:17.955Z,82.21
2022-10-03T17:27:50.972Z,82.34
2022-10-03T17:30:34.161Z,82.37
2022-10-03T17:33:16.819Z,82.43
2022-10-03T17:36:05.264Z,82.62
2022-10-03T17:38:52.003Z,82.75
2022-10-03T17:41:32.167Z,82.94
2022-10-03T17:44:44.092Z,83.09
2022-10-03T17:47:26.883Z,83.13
2022-10-03T17:50:20.451Z,83.23
2022-10-03T17:52:54.890Z,83.30
2022-10-03T17:55:44.775Z,83.41
2022-10-03T17:58:18.177Z,83.38
2022-10-03T18:00:46.017Z,83.36
2022-10-03T18:03:32.532Z,83.38
2022-10-03T18:06:20.446Z,83.18
2022-10-03T18:08:52.540Z,83.19
2022-10-03T18:11:26.274Z,83.20
2022-10-03T18:14:03.683Z,83.16
2022-10-03T18:16:37.745Z,83.13
2022-10-03T18:19:08.418Z,83.07
2022-10-03T18:21:54.778Z,82.96
2022-10-03T18:24:49.877Z,82.82
2022-10-03T18:27:38.331Z,82.79
2022-10-03T18:30:21.050Z,82.77
2022-10-03T18:32:51.835Z,82.75
2022-10-03T18:35:29.981Z,82.74
2022-10-03T18:38:11.292Z,82.77
2022-10-03T18:40:50.091Z,82.79
2022-10-03T18:43:31.622Z,82.78
2022-10-03T18:46:11.971Z,82.83
2022-10-03T18:49:23.986Z,82.92
2022-10-03T18:52:01.274Z,82.94
2022-10-03T18:54:38.714Z,82.95
2022-10-03T18:57:18.353Z,83.01
2022-10-03T18:59:53.080Z,83.01
2022-10-03T19:02:39.585Z,83.00
2022-10-03T19:05:33.910Z,83.06
2022-10-03T19:08:30.889Z,83.04
2022-10-03T19:11:26.922Z,83.06
2022-10-03T19:13:55.475Z,83.04
2022-10-03T19:16:30.292Z,83.07
2022-10-03T19:19:10.256Z,83.08
2022-10-03T19:21:42.553Z,83.21
2022-10-03T19:24:34.482Z,83.21
2022-10-03T19:27:17.703Z,83.18
2022-10-03T19:29:56.331Z,83.25
2022-10-03T19:32:32.288Z,83.33
2022-10-03T19:35:04.860Z,83.43
2022-10-03T19:37:52.009Z,83.55
2022-10-03T19:40:51.889Z,83.56
2022-10-03T19:43:19.812Z,83.65
2022-10-03T19:46:15.643Z,83.67
2022-10-03T19:49:10.835Z,83.66
2022-10-03T19:51:39.907Z,83.58
2022-10-03T19:54:33.959Z,83.45
2022-10-03T19:57:05.622Z,83.39
2022-10-03T19:59:53.172Z,83.33
2022-10-03T20:02:25.081Z,83.19
2022-10-03T20:04:57.737Z,83.11
2022-10-03T20:07:46.164Z,83.10
2022-10-03T20:10:48.079Z,83.05
2022-10-03T20:13:16.828Z,82.90
2022-10-03T20:15:52.985Z,82.89
2022-10-03T20:18:25.659Z,82.90
2022-10-03T20:20:58.461Z,82.87
2022-10-03T20:23:34.180Z,82.83
2022-10-03T20:26:19.965Z,82.74
2022-10-03T20:28:58.343Z,82.75
2022-10-03T20:31:31.160Z,82.82
2022-10-03T20:34:04.071Z,82.85
2022-10-03T20:36:39.733Z,82.88
2022-10-03T20:39:11.098Z,82.88
2022-10-03T20:41:42.470Z,82.92
2022-10-03T20:44:16.387Z,83.00
2022-10-03T20:47:13.628Z,83.00
2022-10-03T20:49:48.396Z,83.02
2022-10-03T20:52:25.862Z,83.06
2022-10-03T20:55:01.572Z,83.09
2022-10-03T20:57:40.698Z,83.14
2022-10-03T21:00:14.922Z,83.20
2022-10-03T21:02:54.653Z,83.26
2022-10-03T21:05:38.245Z,83.34
2022-10-03T21:08:41.547Z,83.43
2022-10-03T21:11:24.117Z,83.59
2022-10-03T21:13:58.100Z,83.58
2022-10-03T21:16:38.763Z,83.68
2022-10-03T21:19:41.206Z,83.66
2022-10-03T21:22:16.503Z,83.83
2022-10-03T21:25:06.947Z,83.89
2022-10-03T21:27:35.224Z,83.83
2022-10-03T21:30:17.755Z,83.75
2022-10-03T21:33:14.879Z,83.71
2022-10-03T21:35:47.399Z,83.74
2022-10-03T21:38:29.026Z,83.72
2022-10-03T21:41:24.294Z,83.71
2022-10-03T21:43:59.591Z,83.69
2022-10-03T21:47:09.340Z,83.69
2022-10-03T21:50:02.054Z,83.80
2022-10-03T21:52:46.132Z,83.78
2022-10-03T21:55:52.370Z,83.83
2022-10-03T21:58:37.090Z,83.86
2022-10-03T22:01:30.631Z,83.86
2022-10-03T22:04:07.755Z,83.98
2022-10-03T22:06:55.747Z,84.10
2022-10-03T22:09:26.195Z,84.01
2022-10-03T22:11:59.542Z,84.09
2022-10-03T22:15:04.920Z,84.16
2022-10-03T22:18:05.362Z,84.25
2022-10-03T22:20:36.638Z,84.40
2022-10-03T22:24:01.903Z,84.42
2022-10-03T22:26:50.218Z,84.42
2022-10-03T22:29:48.774Z,84.47
2022-10-03T22:32:26.123Z,84.47
2022-10-03T22:35:31.305Z,84.52
2022-10-03T22:38:03.918Z,84.52
2022-10-03T22:40:36.313Z,84.62
2022-10-03T22:43:06.353Z,84.62
2022-10-03T22:45:41.605Z,84.59
2022-10-03T22:48:18.725Z,84.54
2022-10-03T22:50:49.921Z,84.55
2022-10-03T22:53:24.169Z,84.58
2022-10-03T22:56:01.047Z,84.59
2022-10-03T22:58:34.078Z,84.60
2022-10-03T23:01:06.452Z,84.66
2022-10-03T23:03:35.690Z,84.67
2022-10-03T23:06:15.941Z,84.57
2022-10-03T23:08:52.862Z,84.54
2022-10-03T23:11:25.340Z,84.49
2022-10-03T23:14:06.473Z,84.53
2022-10-03T23:17:24.052Z,84.53
2022-10-03T23:20:22.609Z,84.54
2022-10-03T23:22:58.810Z,84.54
2022-10-03T23:25:40.706Z,84.52
2022-10-03T23:28:14.812Z,84.55
2022-10-03T23:30:54.501Z,84.56
2022-10-03T23:33:33.963Z,84.54
2022-10-03T23:36:13.559Z,84.56
2022-10-03T23:38:41.463Z,84.59
2022-10-03T23:41:31.271Z,84.61
2022-10-03T23:43:59.675Z,84.63
2022-10-03T23:46:31.088Z,84.66
2022-10-03T23:49:03.345Z,84.79
2022-10-03T23:51:38.217Z,84.74
2022-10-03T23:54:12.441Z,84.85
2022-10-03T23:56:46.052Z,84.99
2022-10-03T23:59:13.996Z,84.90
